createdAt,value
2022-10-15T00:00:35.823Z,43.47
2022-10-15T00:05:43.329Z,43.47
2022-10-15T00:10:47.083Z,44.72
2022-10-15T00:15:50.803Z,45.58
2022-10-15T00:21:08.428Z,44.28
2022-10-15T00:26:15.045Z,47.90
2022-10-15T00:31:21.879Z,48.88
2022-10-15T00:36:34.305Z,51.00
2022-10-15T00:41:42.966Z,51.80
2022-10-15T00:46:47.034Z,47.08
2022-10-15T00:52:01.802Z,46.03
2022-10-15T00:57:07.153Z,46.30
2022-10-15T01:02:14.831Z,47.72
2022-10-15T01:07:18.422Z,46.70
2022-10-15T01:12:40.316Z,51.53
2022-10-15T01:18:18.587Z,49.45
2022-10-15T01:23:59.131Z,48.55
2022-10-15T01:29:37.968Z,49.33
2022-10-15T01:34:55.967Z,49.95
2022-10-15T01:40:08.311Z,49.65
2022-10-15T01:45:17.169Z,50.78
2022-10-15T01:50:24.031Z,51.08
2022-10-15T01:55:28.345Z,51.65
2022-10-15T02:00:32.071Z,51.60
2022-10-15T02:05:52.374Z,56.50
2022-10-15T02:11:10.264Z,52.67
2022-10-15T02:16:24.180Z,51.90
2022-10-15T02:21:43.662Z,51.42
2022-10-15T02:26:48.542Z,50.80
2022-10-15T02:37:02.082Z,50.08
2022-10-15T02:42:07.250Z,52.55
2022-10-15T02:47:11.452Z,53.40
2022-10-15T02:52:15.194Z,53.17
2022-10-15T02:57:18.702Z,48.05
2022-10-15T03:02:22.984Z,51.35
2022-10-15T03:07:26.788Z,53.45
2022-10-15T03:12:37.920Z,51.00
2022-10-15T03:17:41.636Z,50.90
2022-10-15T03:22:45.276Z,54.00
2022-10-15T03:27:49.042Z,52.75
2022-10-15T03:32:52.851Z,53.35
2022-10-15T03:37:57.104Z,59.88
2022-10-15T03:43:00.799Z,54.30
2022-10-15T03:48:04.698Z,54.60
2022-10-15T03:53:08.444Z,57.28
2022-10-15T03:58:12.201Z,55.33
2022-10-15T04:03:16.108Z,56.90
2022-10-15T04:08:20.011Z,57.17
2022-10-15T04:13:23.805Z,55.95
2022-10-15T04:18:27.539Z,52.78
2022-10-15T04:23:31.162Z,54.92
2022-10-15T04:28:34.979Z,55.05
2022-10-15T04:33:39.252Z,57.90
2022-10-15T04:38:42.946Z,55.78
2022-10-15T04:43:46.414Z,56.40
2022-10-15T04:48:59.955Z,54.20
2022-10-15T04:54:03.415Z,57.67
2022-10-15T04:59:10.327Z,52.97
2022-10-15T05:04:13.998Z,54.15
2022-10-15T05:09:18.520Z,53.85
2022-10-15T05:14:22.714Z,54.60
2022-10-15T05:19:26.313Z,57.53
2022-10-15T05:24:29.960Z,57.58
2022-10-15T05:29:33.579Z,56.10
2022-10-15T05:34:37.031Z,55.42
2022-10-15T05:39:40.686Z,56.65
2022-10-15T05:44:44.385Z,54.13
2022-10-15T05:49:48.384Z,52.97
2022-10-15T05:55:02.015Z,52.05
2022-10-15T06:00:07.367Z,55.80
2022-10-15T06:05:10.833Z,52.45
2022-10-15T06:10:19.172Z,54.67
2022-10-15T06:15:22.849Z,52.95
2022-10-15T06:20:26.477Z,51.53
2022-10-15T06:25:29.995Z,57.78
2022-10-15T06:30:34.196Z,51.80
2022-10-15T06:35:37.782Z,53.40
2022-10-15T06:40:41.258Z,54.80
2022-10-15T06:45:45.795Z,50.42
2022-10-15T06:50:49.555Z,96.55
2022-10-15T06:55:53.172Z,77.50
2022-10-15T07:01:04.924Z,63.20
2022-10-15T07:06:10.328Z,50.88
2022-10-15T07:11:13.993Z,51.00
2022-10-15T07:16:17.558Z,55.53
2022-10-15T07:21:22.241Z,49.80
2022-10-15T07:26:26.130Z,48.70
2022-10-15T07:31:29.594Z,46.60
2022-10-15T07:36:33.071Z,120.45
2022-10-15T07:41:37.221Z,49.90
2022-10-15T07:46:40.757Z,47.72
2022-10-15T07:51:44.174Z,46.90
2022-10-15T07:56:47.689Z,44.22
2022-10-15T08:01:52.401Z,45.63
2022-10-15T08:06:56.092Z,43.75
2022-10-15T08:12:00.142Z,63.87
2022-10-15T08:17:07.420Z,53.85
2022-10-15T08:22:13.311Z,45.15
2022-10-15T08:27:16.977Z,42.38
2022-10-15T08:32:20.978Z,43.23
2022-10-15T08:37:24.805Z,52.85
2022-10-15T08:42:40.697Z,50.17
2022-10-15T08:47:52.175Z,38.70
2022-10-15T08:52:58.338Z,65.88
2022-10-15T08:58:15.057Z,43.67
2022-10-15T09:03:35.851Z,43.17
2022-10-15T09:08:51.787Z,34.38
2022-10-15T09:13:56.196Z,35.13
2022-10-15T09:19:05.582Z,31.77
2022-10-15T09:24:14.514Z,38.20
2022-10-15T09:29:40.510Z,38.83
2022-10-15T09:35:13.078Z,37.75
2022-10-15T09:40:29.389Z,35.47
2022-10-15T09:45:33.335Z,34.58
2022-10-15T09:50:45.567Z,35.33
2022-10-15T09:55:54.835Z,36.33
2022-10-15T10:01:04.987Z,35.85
2022-10-15T10:06:14.753Z,32.70
2022-10-15T10:11:19.117Z,35.88
2022-10-15T10:16:24.045Z,36.05
2022-10-15T10:21:40.039Z,36.50
2022-10-15T10:26:43.701Z,37.60
2022-10-15T10:31:51.389Z,36.63
2022-10-15T10:36:56.153Z,35.97
2022-10-15T10:42:05.048Z,37.53
2022-10-15T10:47:16.537Z,37.45
2022-10-15T10:52:30.133Z,36.70
2022-10-15T10:57:43.234Z,34.17
2022-10-15T11:02:46.947Z,35.65
2022-10-15T11:08:19.161Z,33.80
2022-10-15T11:13:36.090Z,34.45
2022-10-15T11:19:19.724Z,34.25
2022-10-15T11:24:49.437Z,36.67
2022-10-15T11:30:31.261Z,30.90
2022-10-15T11:35:52.879Z,30.25
2022-10-15T11:41:03.542Z,30.17
2022-10-15T11:46:18.242Z,30.67
2022-10-15T11:51:45.686Z,30.70
2022-10-15T11:56:53.186Z,27.05
2022-10-15T12:02:25.350Z,29.10
2022-10-15T12:07:39.395Z,29.35
2022-10-15T12:12:48.858Z,30.17
2022-10-15T12:18:05.577Z,27.60
2022-10-15T12:23:40.080Z,29.13
2022-10-15T12:28:49.727Z,29.15
2022-10-15T12:33:56.231Z,31.38
2022-10-15T12:39:11.691Z,26.85
2022-10-15T12:44:36.412Z,31.70
2022-10-15T12:49:42.736Z,29.15
2022-10-15T12:54:47.026Z,28.27
2022-10-15T12:59:59.322Z,27.13
2022-10-15T13:05:04.424Z,26.85
2022-10-15T13:10:22.427Z,27.15
2022-10-15T13:15:28.618Z,27.88
2022-10-15T13:20:38.003Z,26.33
2022-10-15T13:25:41.456Z,27.75
2022-10-15T13:30:50.975Z,28.37
2022-10-15T13:35:54.902Z,28.15
2022-10-15T13:40:58.429Z,29.50
2022-10-15T13:46:02.878Z,30.77
2022-10-15T13:51:07.121Z,28.90
2022-10-15T13:56:24.629Z,29.75
2022-10-15T14:01:29.316Z,27.65
2022-10-15T14:06:35.246Z,28.10
2022-10-15T14:11:40.810Z,26.77
2022-10-15T14:16:48.744Z,28.08
2022-10-15T14:21:53.229Z,29.20
2022-10-15T14:32:29.672Z,30.45
2022-10-15T14:37:36.407Z,32.22
2022-10-15T14:42:41.367Z,30.08
2022-10-15T14:47:48.199Z,35.03
2022-10-15T14:52:54.958Z,33.97
2022-10-15T14:57:59.012Z,36.42
2022-10-15T15:03:07.910Z,37.00
2022-10-15T15:08:11.614Z,38.45
2022-10-15T15:13:21.196Z,37.20
2022-10-15T15:39:57.569Z,40.47
2022-10-15T15:45:01.118Z,38.73
2022-10-15T15:50:05.032Z,39.03
2022-10-15T15:55:09.566Z,38.67
2022-10-15T16:00:14.611Z,42.80
2022-10-15T16:05:18.148Z,42.17
2022-10-15T16:10:21.904Z,44.90
2022-10-15T16:15:25.498Z,42.05
2022-10-15T16:20:29.080Z,44.87
2022-10-15T16:25:32.649Z,51.90
2022-10-15T16:30:36.227Z,45.70
2022-10-15T16:35:40.403Z,45.63
2022-10-15T16:56:24.863Z,55.92
2022-10-15T17:01:30.419Z,79.95
